Lupton, Michigan
Current Conditions -  °F | °C
As of 3:34 AM on Sunday 21 Dec 2014 (Local Time) from KOSC Reporting Station
Scattered Clouds Scattered Clouds  
Wind Chill: 12°   Ceiling: Unl
Heat Index: 12°   Visibility: 10mi
Dew Point: 10°   Wind: 0mph
Humidity: 92%   Direction: NA
Pressure: 30.27"   Gusts: NA
Location:  44.43°N, 84.03°W
Report Text: KOSC 210834Z AUTO 00000KT 10SM SCT039 M11/M12 A3027 RMK AO2 T11101120
Loading
Personal Weather Stations






























Interactive Weather Map New forecast layout! Learn more

10-Day Weather Forecast

Advertisements
Track Severe Weather on mobile